Time;durP1;ratioP1;P1;durP2;ratioP2;P2;SDS_P1;SDS_P2;PMS_P1;PMS_P2;Temp;Humidity;BMP_temperature;BMP_pressure;BME280_temperature;BME280_humidity;BME280_pressure;Samples;Min_cycle;Max_cycle;Signal;HPM_P1;HPM_P2
2023/08/27 00:00:40;;;;;;;13.27;9.37;;;;;;;;;;5036467;28;20189;-70
2023/08/27 00:03:06;;;;;;;15.07;9.13;;;;;;;;;;5036017;28;20182;-69
2023/08/27 00:05:32;;;;;;;15.37;9.17;;;;;;;;;;5035515;28;20205;-69
2023/08/27 00:07:58;;;;;;;16.00;9.43;;;;;;;;;;5035711;28;20235;-69
2023/08/27 00:10:24;;;;;;;15.40;9.90;;;;;;;;;;5053273;28;20548;-69
2023/08/27 00:12:50;;;;;;;15.67;9.23;;;;;;;;;;5053638;28;20182;-69
2023/08/27 00:15:16;;;;;;;13.60;9.50;;;;;;;;;;5053470;28;20190;-69
2023/08/27 00:17:43;;;;;;;16.37;9.40;;;;;;;;;;5037062;28;20206;-69
2023/08/27 00:20:10;;;;;;;13.97;9.57;;;;;;;;;;5053539;28;20175;-69
2023/08/27 00:22:39;;;;;;;16.53;10.10;;;;;;;;;;5053787;28;20178;-70
2023/08/27 00:25:06;;;;;;;13.67;9.83;;;;;;;;;;5053204;28;20202;-70
2023/08/27 00:27:33;;;;;;;13.53;9.50;;;;;;;;;;5053029;28;20285;-70
2023/08/27 00:30:00;;;;;;;14.80;10.13;;;;;;;;;;5053841;28;20175;-70
2023/08/27 00:32:28;;;;;;;11.17;8.70;;;;;;;;;;5053206;28;20254;-70
2023/08/27 00:34:54;;;;;;;11.93;9.00;;;;;;;;;;5035375;28;20210;-70
2023/08/27 00:37:21;;;;;;;15.20;9.50;;;;;;;;;;5052863;28;20740;-70
2023/08/27 00:39:47;;;;;;;15.17;9.47;;;;;;;;;;5035215;28;20186;-70
2023/08/27 00:42:13;;;;;;;15.40;8.80;;;;;;;;;;5052985;28;20640;-70
2023/08/27 00:44:39;;;;;;;11.73;9.23;;;;;;;;;;5052804;28;20202;-71
2023/08/27 00:47:05;;;;;;;10.57;8.87;;;;;;;;;;5053151;28;20198;-69
2023/08/27 00:49:32;;;;;;;10.03;9.00;;;;;;;;;;5034870;28;20178;-70
2023/08/27 00:51:58;;;;;;;11.77;7.93;;;;;;;;;;5052834;28;20178;-69
2023/08/27 00:54:25;;;;;;;12.17;8.43;;;;;;;;;;5052905;28;20566;-70
2023/08/27 00:56:51;;;;;;;9.00;8.10;;;;;;;;;;5052836;28;20194;-70
2023/08/27 00:59:17;;;;;;;10.30;8.47;;;;;;;;;;5052821;28;20232;-69
2023/08/27 01:01:43;;;;;;;15.70;9.10;;;;;;;;;;5054374;28;20178;-70
2023/08/27 01:04:09;;;;;;;12.00;8.40;;;;;;;;;;5056708;28;20269;-69
2023/08/27 01:06:35;;;;;;;9.57;7.83;;;;;;;;;;5056906;28;20213;-70
2023/08/27 01:09:17;;;;;;;10.50;8.73;;;;;;;;;;5038890;28;20185;-69
2023/08/27 01:11:51;;;;;;;10.63;8.07;;;;;;;;;;5058084;28;20159;-69
2023/08/27 01:14:17;;;;;;;13.07;8.67;;;;;;;;;;5038816;28;20175;-70
2023/08/27 01:16:44;;;;;;;13.73;8.90;;;;;;;;;;5056584;28;20190;-70
2023/08/27 01:19:14;;;;;;;10.07;8.40;;;;;;;;;;5056522;28;20224;-70
2023/08/27 01:21:41;;;;;;;13.63;9.30;;;;;;;;;;5038581;28;20233;-70
2023/08/27 01:24:07;;;;;;;11.90;8.63;;;;;;;;;;5038321;28;20265;-70
2023/08/27 01:26:33;;;;;;;10.13;9.03;;;;;;;;;;5038094;28;20218;-70
2023/08/27 01:29:02;;;;;;;12.43;8.60;;;;;;;;;;5038278;28;20201;-70
2023/08/27 01:31:30;;;;;;;11.73;8.77;;;;;;;;;;5038314;28;20183;-70
2023/08/27 01:33:59;;;;;;;10.20;7.87;;;;;;;;;;5038307;28;20186;-70
2023/08/27 01:36:25;;;;;;;8.83;7.83;;;;;;;;;;5055940;28;20297;-70
2023/08/27 01:38:51;;;;;;;8.13;7.40;;;;;;;;;;5055993;28;20193;-70
2023/08/27 01:41:17;;;;;;;9.40;7.80;;;;;;;;;;5056274;28;20178;-70
2023/08/27 01:43:43;;;;;;;9.27;7.20;;;;;;;;;;5056371;28;20240;-69
2023/08/27 01:46:08;;;;;;;12.80;7.13;;;;;;;;;;5037845;28;20210;-70
2023/08/27 01:48:34;;;;;;;8.43;7.00;;;;;;;;;;5055836;28;20175;-70
2023/08/27 01:51:00;;;;;;;8.00;7.20;;;;;;;;;;5056010;28;20178;-70
2023/08/27 01:53:26;;;;;;;12.20;7.40;;;;;;;;;;5037801;28;20236;-70
2023/08/27 01:55:52;;;;;;;11.53;7.63;;;;;;;;;;5055606;28;20199;-70
2023/08/27 01:58:18;;;;;;;8.50;7.40;;;;;;;;;;5055808;28;20201;-70
2023/08/27 02:00:44;;;;;;;8.50;7.00;;;;;;;;;;5037666;28;20186;-70
2023/08/27 02:03:10;;;;;;;13.87;7.90;;;;;;;;;;5055648;28;20182;-70
2023/08/27 02:05:36;;;;;;;9.30;7.47;;;;;;;;;;5056977;28;20238;-70
2023/08/27 02:08:03;;;;;;;10.27;7.63;;;;;;;;;;5055440;28;20174;-70
2023/08/27 02:10:29;;;;;;;9.17;7.37;;;;;;;;;;5055864;28;20175;-70
2023/08/27 02:12:55;;;;;;;8.80;7.37;;;;;;;;;;5037367;28;20183;-70
2023/08/27 02:15:21;;;;;;;11.57;7.57;;;;;;;;;;5037429;28;20530;-69
2023/08/27 02:17:47;;;;;;;12.57;8.47;;;;;;;;;;5055164;28;20222;-70
2023/08/27 02:20:13;;;;;;;9.20;8.03;;;;;;;;;;5056181;28;20682;-70
2023/08/27 02:22:39;;;;;;;11.80;8.83;;;;;;;;;;5056036;28;20682;-70
2023/08/27 02:25:05;;;;;;;12.40;8.10;;;;;;;;;;5037569;28;20293;-70
2023/08/27 02:27:31;;;;;;;11.10;8.73;;;;;;;;;;5055491;28;20264;-70
2023/08/27 02:29:57;;;;;;;14.43;9.30;;;;;;;;;;5037346;28;20182;-70
2023/08/27 02:32:26;;;;;;;11.50;8.37;;;;;;;;;;5055192;28;20171;-70
2023/08/27 02:34:52;;;;;;;11.30;8.33;;;;;;;;;;5037241;28;20274;-70
2023/08/27 02:37:18;;;;;;;11.60;9.00;;;;;;;;;;5037126;28;20218;-70
2023/08/27 02:39:44;;;;;;;12.90;8.87;;;;;;;;;;5037115;28;20682;-70
2023/08/27 02:42:10;;;;;;;13.57;9.27;;;;;;;;;;5055758;28;20191;-70
2023/08/27 02:44:36;;;;;;;10.00;8.47;;;;;;;;;;5037018;28;20660;-72
2023/08/27 02:47:03;;;;;;;14.27;8.80;;;;;;;;;;5054875;28;20664;-70
2023/08/27 02:49:29;;;;;;;11.93;8.50;;;;;;;;;;5037031;28;20202;-70
2023/08/27 02:51:54;;;;;;;15.67;9.97;;;;;;;;;;5036889;28;20232;-70
2023/08/27 02:54:20;;;;;;;13.30;10.00;;;;;;;;;;5055036;28;20178;-70
2023/08/27 02:56:46;;;;;;;15.40;9.70;;;;;;;;;;5056424;28;20195;-70
2023/08/27 02:59:12;;;;;;;14.20;10.73;;;;;;;;;;5057997;28;20179;-70
2023/08/27 03:01:38;;;;;;;15.63;9.33;;;;;;;;;;5054448;28;20179;-70
2023/08/27 03:04:04;;;;;;;14.13;9.53;;;;;;;;;;5054495;28;20181;-70
2023/08/27 03:06:30;;;;;;;15.87;9.93;;;;;;;;;;5054272;28;20236;-70
2023/08/27 03:08:56;;;;;;;17.10;11.07;;;;;;;;;;5054462;28;20185;-71
2023/08/27 03:11:22;;;;;;;18.17;10.77;;;;;;;;;;5054160;28;20211;-70
2023/08/27 03:13:49;;;;;;;14.50;10.17;;;;;;;;;;5036881;28;20182;-70
2023/08/27 03:16:15;;;;;;;14.83;11.17;;;;;;;;;;5054448;28;20195;-70
2023/08/27 03:18:41;;;;;;;15.90;10.67;;;;;;;;;;5036292;28;20670;-70
2023/08/27 03:21:07;;;;;;;12.63;10.60;;;;;;;;;;5053982;28;20252;-70
2023/08/27 03:23:35;;;;;;;16.60;9.90;;;;;;;;;;5053769;28;20210;-70
2023/08/27 03:26:01;;;;;;;14.83;10.87;;;;;;;;;;5053676;28;20291;-70
2023/08/27 03:28:28;;;;;;;17.27;10.00;;;;;;;;;;5054137;28;20189;-70
2023/08/27 03:30:53;;;;;;;13.90;10.47;;;;;;;;;;5054420;28;20181;-70
2023/08/27 03:33:19;;;;;;;13.20;10.00;;;;;;;;;;5054135;28;20257;-70
2023/08/27 03:35:56;;;;;;;13.60;9.37;;;;;;;;;;5035776;28;20582;-70
2023/08/27 03:38:22;;;;;;;17.03;9.33;;;;;;;;;;5054015;28;20577;-70
2023/08/27 03:40:49;;;;;;;16.67;9.40;;;;;;;;;;5053690;28;20265;-70
2023/08/27 03:43:15;;;;;;;17.77;9.77;;;;;;;;;;5035834;28;20190;-70
2023/08/27 03:45:41;;;;;;;15.97;9.93;;;;;;;;;;5035624;28;20301;-70
2023/08/27 03:48:07;;;;;;;14.00;9.63;;;;;;;;;;5053473;28;20261;-71
2023/08/27 03:50:33;;;;;;;13.87;9.10;;;;;;;;;;5055414;28;20209;-70
2023/08/27 03:52:59;;;;;;;12.27;9.87;;;;;;;;;;5053762;28;20183;-70
2023/08/27 03:55:25;;;;;;;12.87;9.60;;;;;;;;;;5053444;28;20178;-70
2023/08/27 03:57:51;;;;;;;12.97;9.10;;;;;;;;;;5035572;28;20182;-70
2023/08/27 04:00:17;;;;;;;11.20;8.90;;;;;;;;;;5053227;28;20335;-71
2023/08/27 04:02:45;;;;;;;12.20;9.20;;;;;;;;;;5035312;28;20182;-71
2023/08/27 04:05:11;;;;;;;10.17;7.77;;;;;;;;;;5053102;28;20213;-71
2023/08/27 04:07:37;;;;;;;11.70;7.90;;;;;;;;;;5053116;28;20205;-71
2023/08/27 04:10:04;;;;;;;11.27;7.73;;;;;;;;;;5035412;28;20182;-71
2023/08/27 04:12:31;;;;;;;12.33;7.20;;;;;;;;;;5053129;28;20205;-71
2023/08/27 04:14:57;;;;;;;10.93;6.97;;;;;;;;;;5035185;28;20185;-70
2023/08/27 04:17:23;;;;;;;9.40;6.80;;;;;;;;;;5052861;28;20217;-71
2023/08/27 04:19:49;;;;;;;7.90;5.70;;;;;;;;;;5035002;28;20182;-70
2023/08/27 04:22:15;;;;;;;8.83;6.13;;;;;;;;;;5035323;28;20278;-71
2023/08/27 04:24:45;;;;;;;8.93;5.73;;;;;;;;;;5035005;28;20202;-71
2023/08/27 04:27:10;;;;;;;7.40;5.73;;;;;;;;;;5035166;28;20300;-71
2023/08/27 04:29:37;;;;;;;9.23;5.83;;;;;;;;;;5053043;28;20215;-72
2023/08/27 04:32:03;;;;;;;6.23;5.43;;;;;;;;;;5052901;28;20185;-71
2023/08/27 04:34:29;;;;;;;11.33;5.73;;;;;;;;;;5052757;28;20633;-71
2023/08/27 04:36:58;;;;;;;14.30;6.47;;;;;;;;;;5036817;28;20209;-71
2023/08/27 04:39:25;;;;;;;9.57;6.27;;;;;;;;;;5058581;28;20197;-71
2023/08/27 04:41:51;;;;;;;7.17;5.90;;;;;;;;;;5040270;28;20224;-71
2023/08/27 04:44:17;;;;;;;10.97;6.23;;;;;;;;;;5062640;28;20174;-70
2023/08/27 04:46:43;;;;;;;8.77;6.00;;;;;;;;;;5057423;28;20218;-71
2023/08/27 04:49:09;;;;;;;8.37;6.57;;;;;;;;;;5057195;28;20300;-71
2023/08/27 04:51:35;;;;;;;8.00;6.30;;;;;;;;;;5039100;28;20202;-71
2023/08/27 04:54:01;;;;;;;8.73;6.40;;;;;;;;;;5057239;28;20231;-71
2023/08/27 04:56:27;;;;;;;7.50;6.47;;;;;;;;;;5056626;28;20199;-71
2023/08/27 04:58:53;;;;;;;8.20;6.77;;;;;;;;;;5038956;28;20269;-71
2023/08/27 05:01:19;;;;;;;8.73;7.30;;;;;;;;;;5038568;28;20213;-71
2023/08/27 05:03:45;;;;;;;10.40;6.93;;;;;;;;;;5056536;28;20182;-71
2023/08/27 05:06:11;;;;;;;8.00;6.87;;;;;;;;;;5056387;28;20217;-71
2023/08/27 05:08:37;;;;;;;7.87;6.33;;;;;;;;;;5056461;28;20178;-71
2023/08/27 05:11:03;;;;;;;10.73;6.93;;;;;;;;;;5056510;28;20210;-71
2023/08/27 05:13:29;;;;;;;10.40;6.70;;;;;;;;;;5038500;28;20195;-71
2023/08/27 05:15:55;;;;;;;8.43;6.43;;;;;;;;;;5056399;28;20264;-71
2023/08/27 05:18:21;;;;;;;7.63;6.17;;;;;;;;;;5056302;28;20182;-71
2023/08/27 05:20:47;;;;;;;6.97;5.30;;;;;;;;;;5056540;28;20187;-72
2023/08/27 05:23:13;;;;;;;8.10;5.20;;;;;;;;;;5056239;28;20178;-71
2023/08/27 05:25:39;;;;;;;7.10;5.40;;;;;;;;;;5056062;28;20668;-71
2023/08/27 05:28:05;;;;;;;9.07;5.57;;;;;;;;;;5038508;28;20265;-72
2023/08/27 05:30:31;;;;;;;6.53;5.30;;;;;;;;;;5038734;28;20235;-71
2023/08/27 05:32:57;;;;;;;6.40;5.07;;;;;;;;;;5056038;28;20174;-71
2023/08/27 05:35:24;;;;;;;7.10;5.87;;;;;;;;;;5039894;28;20179;-71
2023/08/27 05:37:50;;;;;;;6.23;5.57;;;;;;;;;;5056102;28;20190;-72
2023/08/27 05:40:16;;;;;;;5.80;5.30;;;;;;;;;;5056058;28;20182;-71
2023/08/27 05:42:42;;;;;;;6.43;5.50;;;;;;;;;;5056292;28;20182;-72
2023/08/27 05:45:08;;;;;;;8.80;5.57;;;;;;;;;;5055885;28;20213;-72
2023/08/27 05:47:34;;;;;;;9.77;4.93;;;;;;;;;;5055374;28;20289;-72
2023/08/27 05:50:00;;;;;;;11.80;5.53;;;;;;;;;;5055925;28;20174;-72
2023/08/27 05:52:26;;;;;;;7.13;5.00;;;;;;;;;;5037939;28;20232;-72
2023/08/27 05:54:52;;;;;;;10.03;5.30;;;;;;;;;;5037802;28;20186;-72
2023/08/27 05:57:18;;;;;;;7.10;5.10;;;;;;;;;;5037723;28;20203;-72
2023/08/27 05:59:44;;;;;;;5.83;5.10;;;;;;;;;;5055615;28;20206;-72
2023/08/27 06:02:10;;;;;;;6.00;5.00;;;;;;;;;;5055605;28;20183;-72
2023/08/27 06:04:36;;;;;;;7.60;5.90;;;;;;;;;;5056097;28;20178;-71
2023/08/27 06:07:02;;;;;;;7.90;5.30;;;;;;;;;;5056126;28;20230;-70
2023/08/27 06:09:28;;;;;;;8.90;5.87;;;;;;;;;;5038378;28;20614;-70
2023/08/27 06:11:54;;;;;;;7.77;6.50;;;;;;;;;;5037933;28;20183;-70
2023/08/27 06:14:20;;;;;;;7.60;6.73;;;;;;;;;;5038093;28;20205;-70
2023/08/27 06:16:46;;;;;;;9.37;8.07;;;;;;;;;;5038401;28;20680;-70
2023/08/27 06:19:12;;;;;;;11.20;7.47;;;;;;;;;;5038689;28;20182;-70
2023/08/27 06:21:38;;;;;;;10.07;6.53;;;;;;;;;;5055982;28;20204;-70
2023/08/27 06:24:04;;;;;;;7.37;6.10;;;;;;;;;;5039539;28;20209;-70
2023/08/27 06:26:30;;;;;;;10.47;6.20;;;;;;;;;;5037830;28;20256;-69
2023/08/27 06:28:57;;;;;;;13.37;10.90;;;;;;;;;;5061301;28;20326;-70
2023/08/27 06:31:23;;;;;;;11.83;10.17;;;;;;;;;;5055930;28;20175;-70
2023/08/27 06:33:49;;;;;;;9.07;7.83;;;;;;;;;;5037625;28;20178;-70
2023/08/27 06:36:15;;;;;;;11.17;8.27;;;;;;;;;;5055351;28;20195;-70
2023/08/27 06:38:41;;;;;;;11.07;8.00;;;;;;;;;;5055139;28;20178;-70
2023/08/27 06:41:07;;;;;;;11.67;6.53;;;;;;;;;;5055173;28;20186;-70
2023/08/27 06:43:33;;;;;;;7.77;6.80;;;;;;;;;;5055791;28;20174;-70
2023/08/27 06:45:59;;;;;;;8.20;6.13;;;;;;;;;;5055344;28;20703;-70
2023/08/27 06:48:25;;;;;;;14.83;6.60;;;;;;;;;;5055136;28;20170;-69
2023/08/27 06:50:52;;;;;;;6.30;5.70;;;;;;;;;;5037327;28;20187;-70
2023/08/27 06:53:19;;;;;;;7.00;6.30;;;;;;;;;;5055111;28;20236;-71
2023/08/27 06:55:45;;;;;;;5.67;5.10;;;;;;;;;;5037312;28;20187;-71
2023/08/27 06:58:11;;;;;;;7.07;6.03;;;;;;;;;;5057911;28;20186;-70
2023/08/27 07:00:39;;;;;;;8.93;5.97;;;;;;;;;;5057100;28;20182;-71
2023/08/27 07:03:06;;;;;;;7.00;5.33;;;;;;;;;;5055660;28;20594;-69
2023/08/27 07:05:33;;;;;;;5.50;5.00;;;;;;;;;;5056976;28;20207;-70
2023/08/27 07:07:59;;;;;;;6.67;5.00;;;;;;;;;;5055166;28;20697;-70
2023/08/27 07:10:25;;;;;;;5.83;4.37;;;;;;;;;;5055043;28;20174;-70
2023/08/27 07:12:52;;;;;;;6.70;4.27;;;;;;;;;;5037129;28;20179;-70
2023/08/27 07:15:18;;;;;;;5.40;4.47;;;;;;;;;;5054548;28;20285;-70
2023/08/27 07:17:44;;;;;;;6.50;4.80;;;;;;;;;;5054385;28;20205;-70
2023/08/27 07:20:11;;;;;;;5.70;4.90;;;;;;;;;;5038787;28;20191;-70
2023/08/27 07:22:37;;;;;;;7.80;4.47;;;;;;;;;;5037564;28;20182;-70
2023/08/27 07:25:05;;;;;;;7.80;4.80;;;;;;;;;;5055402;28;20572;-70
2023/08/27 07:27:31;;;;;;;8.70;5.17;;;;;;;;;;5054582;28;20202;-70
2023/08/27 07:29:57;;;;;;;5.40;4.83;;;;;;;;;;5037318;28;20501;-70
2023/08/27 07:32:23;;;;;;;7.20;4.90;;;;;;;;;;5054621;28;20178;-70
2023/08/27 07:34:49;;;;;;;5.90;4.60;;;;;;;;;;5054210;28;20187;-70
2023/08/27 07:37:15;;;;;;;5.77;4.43;;;;;;;;;;5053857;28;20198;-70
2023/08/27 07:39:40;;;;;;;6.10;4.60;;;;;;;;;;5054008;28;20179;-70
2023/08/27 07:42:07;;;;;;;6.07;4.90;;;;;;;;;;5035974;28;20182;-70
2023/08/27 07:44:33;;;;;;;6.87;4.70;;;;;;;;;;5054026;28;20249;-70
2023/08/27 07:46:59;;;;;;;8.27;4.73;;;;;;;;;;5054041;28;20277;-69
2023/08/27 07:49:26;;;;;;;5.47;4.97;;;;;;;;;;5036471;28;20289;-70
2023/08/27 07:51:53;;;;;;;4.63;4.20;;;;;;;;;;5035959;28;20210;-70
2023/08/27 07:54:19;;;;;;;5.30;3.97;;;;;;;;;;5054371;28;20632;-70
2023/08/27 07:56:45;;;;;;;6.77;4.07;;;;;;;;;;5053574;28;20199;-69
2023/08/27 07:59:11;;;;;;;4.93;3.97;;;;;;;;;;5053809;28;20261;-70
2023/08/27 08:01:37;;;;;;;4.07;3.40;;;;;;;;;;5035867;28;20682;-70
2023/08/27 08:04:03;;;;;;;4.30;3.70;;;;;;;;;;5053588;28;20212;-70
2023/08/27 08:06:29;;;;;;;5.53;3.43;;;;;;;;;;5053526;28;20214;-69
2023/08/27 08:08:55;;;;;;;4.70;3.57;;;;;;;;;;5035937;28;20227;-70
2023/08/27 08:11:21;;;;;;;5.87;3.27;;;;;;;;;;5053564;28;20659;-69
2023/08/27 08:13:47;;;;;;;5.97;3.60;;;;;;;;;;5055970;28;20261;-69
2023/08/27 08:16:13;;;;;;;4.13;3.27;;;;;;;;;;5053710;28;20228;-69
2023/08/27 08:18:39;;;;;;;5.83;3.13;;;;;;;;;;5035416;28;20182;-69
2023/08/27 08:21:05;;;;;;;5.50;3.13;;;;;;;;;;5053558;28;20182;-69
2023/08/27 08:23:31;;;;;;;3.30;3.00;;;;;;;;;;5035417;28;20182;-69
2023/08/27 08:25:59;;;;;;;3.20;2.90;;;;;;;;;;5035057;28;20659;-69
2023/08/27 08:28:26;;;;;;;5.73;4.03;;;;;;;;;;5053516;28;20162;-68
2023/08/27 08:30:52;;;;;;;4.93;2.90;;;;;;;;;;5053871;28;20676;-69
2023/08/27 08:33:18;;;;;;;3.10;2.80;;;;;;;;;;5036069;28;20179;-69
2023/08/27 08:35:44;;;;;;;3.10;2.80;;;;;;;;;;5054056;28;20178;-69
2023/08/27 08:38:10;;;;;;;3.73;3.20;;;;;;;;;;5053947;28;20229;-69
2023/08/27 08:40:44;;;;;;;4.30;2.80;;;;;;;;;;5035577;28;20186;-69
2023/08/27 08:43:11;;;;;;;3.53;2.90;;;;;;;;;;5035910;28;20677;-69
2023/08/27 08:45:48;;;;;;;2.60;2.30;;;;;;;;;;5053426;28;20194;-69
2023/08/27 08:48:15;;;;;;;2.60;2.37;;;;;;;;;;5053294;28;20154;-69
2023/08/27 08:50:42;;;;;;;7.93;2.50;;;;;;;;;;5035387;28;20643;-69
2023/08/27 08:53:15;;;;;;;3.57;2.43;;;;;;;;;;5053467;28;20179;-68
2023/08/27 08:55:43;;;;;;;2.30;2.10;;;;;;;;;;5053029;28;20260;-69
2023/08/27 08:58:10;;;;;;;4.27;2.70;;;;;;;;;;5053031;28;20185;-69
2023/08/27 09:00:36;;;;;;;5.33;2.50;;;;;;;;;;5035899;28;20186;-68
2023/08/27 09:03:03;;;;;;;3.63;2.47;;;;;;;;;;5053064;28;20185;-69
2023/08/27 09:05:29;;;;;;;3.43;2.00;;;;;;;;;;5057606;28;20254;-69
2023/08/27 09:07:56;;;;;;;6.43;2.60;;;;;;;;;;5054007;28;20175;-69
2023/08/27 09:10:23;;;;;;;8.07;2.33;;;;;;;;;;5052831;28;20705;-69
2023/08/27 09:12:50;;;;;;;4.87;2.73;;;;;;;;;;5052698;28;20174;-69
2023/08/27 09:15:16;;;;;;;4.27;2.60;;;;;;;;;;5052905;28;20186;-69
2023/08/27 09:17:42;;;;;;;4.13;2.03;;;;;;;;;;5052840;28;20580;-69
2023/08/27 09:20:08;;;;;;;2.83;1.90;;;;;;;;;;5053249;28;20617;-69
2023/08/27 09:22:35;;;;;;;3.57;2.00;;;;;;;;;;5036323;28;20213;-70
2023/08/27 09:25:02;;;;;;;4.70;2.17;;;;;;;;;;5056802;28;20198;-70
2023/08/27 09:27:28;;;;;;;3.80;2.10;;;;;;;;;;5038198;28;20218;-70
2023/08/27 09:29:57;;;;;;;3.87;2.03;;;;;;;;;;5056693;28;20171;-70
2023/08/27 09:32:23;;;;;;;6.03;2.30;;;;;;;;;;5038806;28;20185;-69
2023/08/27 09:34:49;;;;;;;7.03;2.37;;;;;;;;;;5056591;28;20607;-70
2023/08/27 09:37:15;;;;;;;2.47;1.90;;;;;;;;;;5056044;28;20198;-70
2023/08/27 09:39:45;;;;;;;3.07;2.00;;;;;;;;;;5056149;28;20228;-70
2023/08/27 09:42:12;;;;;;;4.97;2.10;;;;;;;;;;5056336;28;20257;-69
2023/08/27 09:44:38;;;;;;;5.63;2.57;;;;;;;;;;5056074;28;20268;-70
2023/08/27 09:47:05;;;;;;;6.20;2.27;;;;;;;;;;5056199;28;20204;-70
2023/08/27 09:49:31;;;;;;;4.47;2.27;;;;;;;;;;5056530;28;20262;-70
2023/08/27 09:51:58;;;;;;;7.43;2.20;;;;;;;;;;5038409;28;20179;-70
2023/08/27 09:54:29;;;;;;;3.10;1.60;;;;;;;;;;5038759;28;20659;-69
2023/08/27 09:56:59;;;;;;;3.13;2.00;;;;;;;;;;5056241;28;20600;-70
2023/08/27 09:59:25;;;;;;;4.17;2.27;;;;;;;;;;5057880;28;20167;-69
2023/08/27 10:01:52;;;;;;;2.40;2.00;;;;;;;;;;5055793;28;20244;-70
2023/08/27 10:04:18;;;;;;;4.53;2.00;;;;;;;;;;5055929;28;20644;-70
2023/08/27 10:06:45;;;;;;;5.93;1.83;;;;;;;;;;5055470;28;20241;-70
2023/08/27 10:09:11;;;;;;;2.93;1.90;;;;;;;;;;5056195;28;20182;-70
2023/08/27 10:11:37;;;;;;;5.57;2.30;;;;;;;;;;5055806;28;20649;-70
2023/08/27 10:14:04;;;;;;;4.60;2.27;;;;;;;;;;5055943;28;20544;-70
2023/08/27 10:16:31;;;;;;;3.73;1.97;;;;;;;;;;5055218;28;20205;-69
2023/08/27 10:18:57;;;;;;;3.73;2.10;;;;;;;;;;5037325;28;20182;-70
2023/08/27 10:21:24;;;;;;;5.37;2.20;;;;;;;;;;5055480;28;20174;-70
2023/08/27 10:23:50;;;;;;;4.33;2.10;;;;;;;;;;5037768;28;20193;-70
2023/08/27 10:26:16;;;;;;;3.63;1.70;;;;;;;;;;5055205;28;20297;-70
2023/08/27 10:28:44;;;;;;;3.80;2.00;;;;;;;;;;5037521;28;20178;-70
2023/08/27 10:31:10;;;;;;;3.27;1.97;;;;;;;;;;5055375;28;20183;-70
2023/08/27 10:33:37;;;;;;;4.43;2.00;;;;;;;;;;5036344;28;20704;-70
2023/08/27 10:36:05;;;;;;;5.03;2.20;;;;;;;;;;5055081;28;20577;-70
2023/08/27 10:38:33;;;;;;;7.07;2.07;;;;;;;;;;5055527;28;20270;-70
2023/08/27 10:41:02;;;;;;;6.03;2.07;;;;;;;;;;5055706;28;20174;-70
2023/08/27 10:43:32;;;;;;;5.43;2.00;;;;;;;;;;5038583;28;20190;-70
2023/08/27 10:46:09;;;;;;;3.43;2.07;;;;;;;;;;5056083;28;20228;-70
2023/08/27 10:48:36;;;;;;;5.47;2.37;;;;;;;;;;5037262;28;20178;-70
2023/08/27 10:51:10;;;;;;;2.50;2.00;;;;;;;;;;5055772;28;20233;-69
2023/08/27 10:53:51;;;;;;;5.30;2.20;;;;;;;;;;5055255;28;20548;-70
2023/08/27 10:56:27;;;;;;;4.93;2.10;;;;;;;;;;5054870;28;20198;-70
2023/08/27 10:58:53;;;;;;;3.73;1.70;;;;;;;;;;5037026;28;20316;-70
2023/08/27 11:01:19;;;;;;;6.53;1.97;;;;;;;;;;5055413;28;20190;-69
2023/08/27 11:04:04;;;;;;;4.60;2.13;;;;;;;;;;5056276;28;20531;-68
2023/08/27 11:06:40;;;;;;;5.37;1.87;;;;;;;;;;5056074;28;20563;-67
2023/08/27 11:09:15;;;;;;;5.70;1.97;;;;;;;;;;5056669;28;20174;-67
2023/08/27 11:11:59;;;;;;;7.00;1.60;;;;;;;;;;5057334;28;20174;-68
2023/08/27 11:14:26;;;;;;;3.53;1.70;;;;;;;;;;5056880;28;20284;-67
2023/08/27 11:17:06;;;;;;;3.17;1.77;;;;;;;;;;5056567;28;20571;-68
2023/08/27 11:19:34;;;;;;;4.53;1.93;;;;;;;;;;5057151;28;20613;-67
2023/08/27 11:22:04;;;;;;;3.33;1.60;;;;;;;;;;5056595;28;20183;-67
2023/08/27 11:24:30;;;;;;;3.07;1.50;;;;;;;;;;5038878;28;20192;-68
2023/08/27 11:26:59;;;;;;;6.23;2.00;;;;;;;;;;5037943;28;20222;-68
2023/08/27 11:29:26;;;;;;;2.63;1.60;;;;;;;;;;5038316;28;20274;-67
2023/08/27 11:31:52;;;;;;;2.50;1.87;;;;;;;;;;5057206;28;20171;-67
2023/08/27 11:34:18;;;;;;;4.20;1.70;;;;;;;;;;5039729;28;20548;-67
2023/08/27 11:36:44;;;;;;;2.30;1.53;;;;;;;;;;5060953;28;20259;-68
2023/08/27 11:39:11;;;;;;;3.43;1.90;;;;;;;;;;5058797;28;20186;-68
2023/08/27 11:41:38;;;;;;;4.50;1.80;;;;;;;;;;5056276;28;20549;-68
2023/08/27 11:44:05;;;;;;;5.50;1.80;;;;;;;;;;5054774;28;20175;-69
2023/08/27 11:46:31;;;;;;;3.80;1.50;;;;;;;;;;5036427;28;20214;-70
2023/08/27 11:48:57;;;;;;;2.60;1.40;;;;;;;;;;5035800;28;20607;-69
2023/08/27 11:51:24;;;;;;;4.83;1.90;;;;;;;;;;5053875;28;20186;-69
2023/08/27 11:53:51;;;;;;;4.60;1.97;;;;;;;;;;5053782;28;20171;-69
2023/08/27 11:56:18;;;;;;;4.20;1.60;;;;;;;;;;5035772;28;20221;-69
2023/08/27 11:58:45;;;;;;;3.17;1.80;;;;;;;;;;5053335;28;20178;-68
2023/08/27 12:01:11;;;;;;;5.53;2.00;;;;;;;;;;5035826;28;20186;-69
2023/08/27 12:06:15;;;;;;;3.83;1.60;;;;;;;;;;5071206;22;20704;-67
2023/08/27 12:08:41;;;;;;;2.67;2.00;;;;;;;;;;5053979;28;20171;-67
2023/08/27 12:11:07;;;;;;;3.73;1.83;;;;;;;;;;5035856;28;20189;-69
2023/08/27 12:13:33;;;;;;;3.33;1.47;;;;;;;;;;5036157;28;20178;-68
2023/08/27 12:16:03;;;;;;;3.33;1.73;;;;;;;;;;5053791;28;20202;-67
2023/08/27 12:18:34;;;;;;;4.27;1.93;;;;;;;;;;5053469;28;20652;-67
2023/08/27 12:21:06;;;;;;;4.47;2.20;;;;;;;;;;5053616;28;20183;-68
2023/08/27 12:23:33;;;;;;;3.73;1.57;;;;;;;;;;5053627;28;20181;-67
2023/08/27 12:26:01;;;;;;;1.63;1.40;;;;;;;;;;5053555;28;20202;-67
2023/08/27 12:28:27;;;;;;;3.83;1.50;;;;;;;;;;5053421;28;20178;-67
2023/08/27 12:30:54;;;;;;;2.87;1.87;;;;;;;;;;5053591;28;20181;-66
2023/08/27 12:33:20;;;;;;;3.33;1.77;;;;;;;;;;5053571;28;20179;-67
2023/08/27 12:35:50;;;;;;;1.93;1.40;;;;;;;;;;5053510;28;20198;-68
2023/08/27 12:38:16;;;;;;;2.93;1.73;;;;;;;;;;5035996;28;20607;-67
2023/08/27 12:40:42;;;;;;;4.37;1.93;;;;;;;;;;5053672;28;20174;-67
2023/08/27 12:43:08;;;;;;;4.23;1.90;;;;;;;;;;5053853;28;20175;-67
2023/08/27 12:45:35;;;;;;;4.13;1.93;;;;;;;;;;5053611;28;20214;-67
2023/08/27 12:48:04;;;;;;;3.10;1.80;;;;;;;;;;5054124;28;20178;-68
2023/08/27 12:50:30;;;;;;;3.27;1.80;;;;;;;;;;5054236;28;20204;-67
2023/08/27 12:52:56;;;;;;;2.87;1.87;;;;;;;;;;5054297;28;20527;-67
2023/08/27 12:55:23;;;;;;;2.53;1.50;;;;;;;;;;5053873;28;20206;-67
2023/08/27 12:57:49;;;;;;;2.60;1.70;;;;;;;;;;5037341;28;20547;-66
2023/08/27 13:00:15;;;;;;;3.73;1.90;;;;;;;;;;5058029;28;20191;-68
2023/08/27 13:02:41;;;;;;;4.47;1.47;;;;;;;;;;5057543;28;20554;-67
2023/08/27 13:05:09;;;;;;;4.10;1.63;;;;;;;;;;5056443;28;20214;-67
2023/08/27 13:07:36;;;;;;;2.90;1.40;;;;;;;;;;5056659;28;20227;-67
2023/08/27 13:10:03;;;;;;;5.67;1.60;;;;;;;;;;5039290;28;20182;-65
2023/08/27 13:12:29;;;;;;;2.40;1.60;;;;;;;;;;5038740;28;20174;-67
2023/08/27 13:14:55;;;;;;;2.63;1.50;;;;;;;;;;5038492;28;20580;-67
2023/08/27 13:17:21;;;;;;;3.90;2.33;;;;;;;;;;5038482;28;20205;-65
2023/08/27 13:19:47;;;;;;;7.00;1.80;;;;;;;;;;5056315;28;20186;-66
2023/08/27 13:22:13;;;;;;;2.60;1.60;;;;;;;;;;5056206;28;20179;-66
2023/08/27 13:24:39;;;;;;;2.40;1.80;;;;;;;;;;5038110;28;20203;-66
2023/08/27 13:27:05;;;;;;;3.90;2.10;;;;;;;;;;5038109;28;20383;-67
2023/08/27 13:29:31;;;;;;;7.27;3.73;;;;;;;;;;5055928;28;20228;-67
2023/08/27 13:31:57;;;;;;;4.00;2.63;;;;;;;;;;5037914;28;20182;-67
2023/08/27 13:34:24;;;;;;;3.23;2.50;;;;;;;;;;5056192;28;20218;-67
2023/08/27 13:36:50;;;;;;;3.50;2.00;;;;;;;;;;5038652;28;20182;-67
2023/08/27 13:39:16;;;;;;;5.60;2.00;;;;;;;;;;5056149;28;20616;-67
2023/08/27 13:41:43;;;;;;;3.87;2.20;;;;;;;;;;5055960;28;20714;-66
2023/08/27 13:44:09;;;;;;;1.97;1.50;;;;;;;;;;5055793;28;20203;-65
2023/08/27 13:46:35;;;;;;;1.77;1.43;;;;;;;;;;5055919;28;20586;-66
2023/08/27 13:49:01;;;;;;;3.93;1.53;;;;;;;;;;5037978;28;20175;-66
2023/08/27 13:51:27;;;;;;;3.73;1.60;;;;;;;;;;5056434;28;20592;-66
2023/08/27 13:53:53;;;;;;;6.80;1.90;;;;;;;;;;5056029;28;20210;-66
2023/08/27 13:56:19;;;;;;;3.33;1.97;;;;;;;;;;5055851;28;20186;-66
2023/08/27 13:58:46;;;;;;;3.40;1.83;;;;;;;;;;5038548;28;20269;-66
2023/08/27 14:01:12;;;;;;;1.77;1.33;;;;;;;;;;5055549;28;20174;-65
2023/08/27 14:03:38;;;;;;;3.00;1.70;;;;;;;;;;5055515;28;20212;-66
2023/08/27 14:06:03;;;;;;;2.47;1.30;;;;;;;;;;5037459;28;20218;-66
2023/08/27 14:08:30;;;;;;;2.23;1.70;;;;;;;;;;5055103;28;20245;-67
2023/08/27 14:10:56;;;;;;;2.10;1.37;;;;;;;;;;5037713;28;20181;-67
2023/08/27 14:13:23;;;;;;;1.43;1.27;;;;;;;;;;5037558;28;20484;-66
2023/08/27 14:15:49;;;;;;;4.27;1.30;;;;;;;;;;5055879;28;20221;-67
2023/08/27 14:18:15;;;;;;;3.47;1.40;;;;;;;;;;5037351;28;20221;-66
2023/08/27 14:20:41;;;;;;;2.53;1.30;;;;;;;;;;5055775;28;20174;-67
2023/08/27 14:23:07;;;;;;;2.97;2.37;;;;;;;;;;5037696;28;20183;-65
2023/08/27 14:25:33;;;;;;;2.67;1.40;;;;;;;;;;5054934;28;20206;-66
2023/08/27 14:27:59;;;;;;;2.47;1.50;;;;;;;;;;5037237;28;20323;-66
2023/08/27 14:30:25;;;;;;;2.40;1.50;;;;;;;;;;5037256;28;20186;-66
2023/08/27 14:32:51;;;;;;;3.07;1.67;;;;;;;;;;5055019;28;20196;-65
2023/08/27 14:35:17;;;;;;;1.80;1.40;;;;;;;;;;5054975;28;20194;-67
2023/08/27 14:37:44;;;;;;;3.50;1.53;;;;;;;;;;5054956;28;20181;-65